createdAt,value
2023-05-13T00:00:05.374Z,81.35
2023-05-13T00:02:39.572Z,81.02
2023-05-13T00:05:26.352Z,81.77
2023-05-13T00:08:02.173Z,81.30
2023-05-13T00:10:49.322Z,81.91
2023-05-13T00:13:22.493Z,81.75
2023-05-13T00:16:10.426Z,82.30
2023-05-13T00:18:43.469Z,82.15
2023-05-13T00:21:30.346Z,82.41
2023-05-13T00:24:03.467Z,82.49
2023-05-13T00:26:50.356Z,83.33
2023-05-13T00:29:23.468Z,83.41
2023-05-13T00:32:17.435Z,84.09
2023-05-13T00:35:11.373Z,83.72
2023-05-13T00:37:58.348Z,84.28
2023-05-13T00:40:32.438Z,84.09
2023-05-13T00:43:19.340Z,84.57
2023-05-13T00:45:59.428Z,84.51
2023-05-13T00:48:46.364Z,84.48
2023-05-13T00:51:26.354Z,84.54
2023-05-13T00:54:13.365Z,84.64
2023-05-13T00:56:53.345Z,84.86
2023-05-13T00:59:47.380Z,85.29
2023-05-13T01:02:41.461Z,85.19
2023-05-13T01:05:51.592Z,85.23
2023-05-13T01:09:03.378Z,85.09
2023-05-13T01:11:50.379Z,84.89
2023-05-13T01:14:50.356Z,85.14
2023-05-13T01:17:54.416Z,85.79
2023-05-13T01:20:29.511Z,85.45
2023-05-13T01:23:18.372Z,85.57
2023-05-13T01:25:51.486Z,85.24
2023-05-13T01:28:38.380Z,85.61
2023-05-13T01:31:12.519Z,85.68
2023-05-13T01:33:59.379Z,86.08
2023-05-13T01:36:32.649Z,86.01
2023-05-13T01:39:20.386Z,86.27
2023-05-13T01:41:53.470Z,86.16
2023-05-13T01:44:40.383Z,86.18
2023-05-13T01:47:13.500Z,86.35
2023-05-13T01:50:00.392Z,86.71
2023-05-13T01:52:33.479Z,86.74
2023-05-13T01:55:20.370Z,86.89
2023-05-13T01:57:53.489Z,86.93
2023-05-13T02:00:40.380Z,87.13
2023-05-13T02:03:20.475Z,86.94
2023-05-13T02:06:14.396Z,87.46
2023-05-13T02:09:08.394Z,87.67
2023-05-13T02:11:55.395Z,87.83
2023-05-13T02:14:28.488Z,88.08
2023-05-13T02:17:15.408Z,88.10
2023-05-13T02:19:55.392Z,88.25
2023-05-13T02:22:49.433Z,88.19
2023-05-13T02:25:36.403Z,88.44
2023-05-13T02:28:09.483Z,88.12
2023-05-13T02:31:03.421Z,88.63
2023-05-13T02:33:57.388Z,88.82
2023-05-13T02:36:51.421Z,88.71
2023-05-13T02:39:38.404Z,89.20
2023-05-13T02:42:12.532Z,88.95
2023-05-13T02:44:59.399Z,89.66
2023-05-13T02:47:32.547Z,89.23
2023-05-13T02:50:20.555Z,90.08
2023-05-13T02:53:01.474Z,89.58
2023-05-13T02:55:55.414Z,89.75
2023-05-13T02:58:49.415Z,89.77
2023-05-13T03:01:43.488Z,89.95
2023-05-13T03:04:30.406Z,90.35
2023-05-13T03:07:10.411Z,90.32
2023-05-13T03:09:57.430Z,90.60
2023-05-13T03:12:30.710Z,90.26
2023-05-13T03:15:17.458Z,90.30
2023-05-13T03:17:50.695Z,90.29
2023-05-13T03:20:37.413Z,90.63
2023-05-13T03:23:10.572Z,90.40
2023-05-13T03:25:57.437Z,90.62
2023-05-13T03:28:30.805Z,90.43
2023-05-13T03:31:24.513Z,90.61
2023-05-13T03:34:18.422Z,90.49
2023-05-13T03:37:05.432Z,90.25
2023-05-13T03:39:38.576Z,90.19
2023-05-13T03:42:26.455Z,90.47
2023-05-13T03:44:59.595Z,90.39
2023-05-13T03:47:46.482Z,90.73
2023-05-13T03:50:19.620Z,90.30
2023-05-13T03:53:06.418Z,91.01
2023-05-13T03:55:39.548Z,90.65
2023-05-13T03:58:28.438Z,90.81
2023-05-13T04:01:08.442Z,90.47
2023-05-13T04:03:56.461Z,90.56
2023-05-13T04:06:29.532Z,90.50
2023-05-13T04:09:16.438Z,91.00
2023-05-13T04:11:56.435Z,90.54
2023-05-13T04:14:43.456Z,90.67
2023-05-13T04:17:23.461Z,90.48
2023-05-13T04:20:10.465Z,90.20
2023-05-13T04:22:50.455Z,89.95
2023-05-13T04:25:44.456Z,89.56
2023-05-13T04:28:31.472Z,89.89
2023-05-13T04:31:04.588Z,89.60
2023-05-13T04:33:51.451Z,89.71
2023-05-13T04:36:24.557Z,89.46
2023-05-13T04:39:11.447Z,89.19
2023-05-13T04:41:44.593Z,88.96
2023-05-13T04:44:31.484Z,88.75
2023-05-13T04:47:04.637Z,88.63
2023-05-13T04:49:51.448Z,88.81
2023-05-13T04:52:25.664Z,88.42
2023-05-13T04:55:12.502Z,88.05
2023-05-13T04:57:45.685Z,87.71
2023-05-13T05:00:32.476Z,87.72
2023-05-13T05:03:12.572Z,87.42
2023-05-13T05:05:59.497Z,87.19
2023-05-13T05:08:32.631Z,86.77
2023-05-13T05:11:19.480Z,86.62
2023-05-13T05:13:59.492Z,86.03
2023-05-13T05:16:46.464Z,85.41
2023-05-13T05:19:30.557Z,85.19
2023-05-13T05:22:24.704Z,84.96
2023-05-13T05:25:11.499Z,84.57
2023-05-13T05:27:44.623Z,84.52
2023-05-13T05:30:31.472Z,84.38
2023-05-13T05:33:05.649Z,83.63
2023-05-13T05:35:52.498Z,83.26
2023-05-13T05:38:25.628Z,83.73
2023-05-13T05:41:12.517Z,82.86
2023-05-13T05:43:45.659Z,82.45
2023-05-13T05:46:32.676Z,82.16
2023-05-13T05:49:12.487Z,82.15
2023-05-13T05:52:06.521Z,81.50
2023-05-13T05:55:00.526Z,80.48
2023-05-13T05:57:54.508Z,80.55
2023-05-13T06:00:48.494Z,78.83
2023-05-13T06:03:35.552Z,79.34
2023-05-13T06:06:08.716Z,79.08
2023-05-13T06:08:55.495Z,78.34
2023-05-13T06:11:28.643Z,77.10
2023-05-13T06:14:15.485Z,76.84
2023-05-13T06:16:48.633Z,76.55
2023-05-13T06:19:35.504Z,75.37
2023-05-13T06:22:08.608Z,75.64
2023-05-13T06:24:55.518Z,74.15
2023-05-13T06:27:28.631Z,72.56
2023-05-13T06:30:15.514Z,69.97
2023-05-13T06:33:00.209Z,73.47
2023-05-13T06:35:41.523Z,73.99
2023-05-13T06:38:24.536Z,72.13
2023-05-13T06:40:57.634Z,72.49
2023-05-13T06:43:45.563Z,71.72
2023-05-13T06:46:21.682Z,71.43
2023-05-13T06:49:08.519Z,68.72
2023-05-13T06:51:48.525Z,67.30
2023-05-13T06:54:35.526Z,67.23
2023-05-13T06:57:08.639Z,66.60
2023-05-13T06:59:55.502Z,65.76
2023-05-13T07:02:28.678Z,64.95
2023-05-13T07:05:16.518Z,63.84
2023-05-13T07:07:53.621Z,64.15
2023-05-13T07:10:41.548Z,63.69
2023-05-13T07:13:21.519Z,62.70
2023-05-13T07:16:11.572Z,61.29
2023-05-13T07:18:51.622Z,62.06
2023-05-13T07:21:45.590Z,61.17
2023-05-13T07:24:32.615Z,61.71
2023-05-13T07:27:05.630Z,61.99
2023-05-13T07:29:52.563Z,61.35
2023-05-13T07:32:25.816Z,61.21
2023-05-13T07:35:13.563Z,60.84
2023-05-13T07:37:46.726Z,60.24
2023-05-13T07:40:33.558Z,59.39
2023-05-13T07:43:06.672Z,59.36
2023-05-13T07:45:53.543Z,59.25
2023-05-13T07:48:28.265Z,58.51
2023-05-13T07:51:14.533Z,57.07
2023-05-13T07:53:47.724Z,58.09
2023-05-13T07:56:34.563Z,58.51
2023-05-13T07:59:14.539Z,57.77
2023-05-13T08:02:08.644Z,56.26
2023-05-13T08:04:55.630Z,57.45
2023-05-13T08:07:35.552Z,56.14
2023-05-13T08:10:29.598Z,57.55
2023-05-13T08:13:23.589Z,57.03
2023-05-13T08:16:17.600Z,56.63
2023-05-13T08:19:04.623Z,56.48
2023-05-13T08:21:37.709Z,56.42
2023-05-13T08:24:24.551Z,56.52
2023-05-13T08:26:57.696Z,56.14
2023-05-13T08:29:44.580Z,56.29
2023-05-13T08:32:18.807Z,55.39
2023-05-13T08:35:05.583Z,56.08
2023-05-13T08:37:38.679Z,55.30
2023-05-13T08:40:25.567Z,55.77
2023-05-13T08:43:02.790Z,55.22
2023-05-13T08:45:54.608Z,54.61
2023-05-13T08:48:28.689Z,54.61
2023-05-13T08:51:16.620Z,54.14
2023-05-13T08:53:50.887Z,54.81
2023-05-13T08:56:40.217Z,54.03
2023-05-13T08:59:20.572Z,54.05
2023-05-13T09:02:14.614Z,53.07
2023-05-13T09:05:02.818Z,52.86
2023-05-13T09:07:39.748Z,52.92
2023-05-13T09:10:27.610Z,53.24
2023-05-13T09:13:10.617Z,52.75
2023-05-13T09:16:04.619Z,52.46
2023-05-13T09:18:51.671Z,51.54
2023-05-13T09:21:37.653Z,51.08
2023-05-13T09:24:40.592Z,51.13
2023-05-13T09:27:43.604Z,51.68
2023-05-13T09:30:17.759Z,51.64
2023-05-13T09:33:11.717Z,50.15
2023-05-13T09:35:45.812Z,50.92
2023-05-13T09:38:34.586Z,51.39
2023-05-13T09:41:16.614Z,51.17
2023-05-13T09:44:04.597Z,50.88
2023-05-13T09:46:45.627Z,49.57
2023-05-13T09:49:42.601Z,50.56
2023-05-13T09:52:29.628Z,50.63
2023-05-13T09:55:05.239Z,50.62
2023-05-13T09:57:52.622Z,51.86
2023-05-13T10:00:33.931Z,51.49
2023-05-13T10:03:22.761Z,50.88
2023-05-13T10:05:57.751Z,52.01
2023-05-13T10:08:45.621Z,52.35
2023-05-13T10:11:19.715Z,52.23
2023-05-13T10:14:09.835Z,52.49
2023-05-13T10:16:50.660Z,52.42
2023-05-13T10:19:37.650Z,52.52
2023-05-13T10:22:11.739Z,52.12
2023-05-13T10:24:58.667Z,51.68
2023-05-13T10:27:39.748Z,51.74
2023-05-13T10:30:32.613Z,51.26
2023-05-13T10:33:06.850Z,51.51
2023-05-13T10:36:28.614Z,52.10
2023-05-13T10:39:46.630Z,52.46
2023-05-13T10:43:01.632Z,52.88
2023-05-13T10:46:03.662Z,52.95
2023-05-13T10:48:55.630Z,53.35
2023-05-13T10:51:39.654Z,53.38
2023-05-13T10:54:35.642Z,53.16
2023-05-13T10:57:22.650Z,51.82
2023-05-13T11:00:37.397Z,52.83
2023-05-13T11:03:28.207Z,52.94
2023-05-13T11:06:22.356Z,52.98
2023-05-13T11:09:12.675Z,52.94
2023-05-13T11:11:46.749Z,53.14
2023-05-13T11:14:34.642Z,52.52
2023-05-13T11:17:07.789Z,52.93
2023-05-13T11:19:57.661Z,53.26
2023-05-13T11:22:30.780Z,52.74
2023-05-13T11:25:19.648Z,52.25
2023-05-13T11:27:55.759Z,52.66
2023-05-13T11:30:42.670Z,52.88
2023-05-13T11:33:15.756Z,52.52
2023-05-13T11:36:02.668Z,52.58
2023-05-13T11:38:35.756Z,53.24
2023-05-13T11:41:22.657Z,52.95
2023-05-13T11:44:05.666Z,51.70
2023-05-13T11:47:05.674Z,50.18
2023-05-13T11:49:55.728Z,50.69
2023-05-13T11:52:49.699Z,49.61
2023-05-13T11:55:36.702Z,49.76
2023-05-13T11:58:10.766Z,49.99
2023-05-13T12:00:58.689Z,48.57
2023-05-13T12:03:35.298Z,49.46
2023-05-13T12:06:22.708Z,49.69
2023-05-13T12:08:55.859Z,49.06
2023-05-13T12:11:42.704Z,48.75
2023-05-13T12:14:15.815Z,48.43
2023-05-13T12:17:03.699Z,49.51
2023-05-13T12:19:37.491Z,50.22
2023-05-13T12:22:28.693Z,51.17
2023-05-13T12:25:12.682Z,50.42
2023-05-13T12:28:06.699Z,50.63
2023-05-13T12:30:58.894Z,50.58
2023-05-13T12:33:40.771Z,50.39
2023-05-13T12:36:42.790Z,50.05
2023-05-13T12:39:24.723Z,50.98
2023-05-13T12:42:11.708Z,49.22
2023-05-13T12:44:52.709Z,50.35
2023-05-13T12:48:04.778Z,51.30
2023-05-13T12:51:00.669Z,52.08
2023-05-13T12:53:55.688Z,52.84
2023-05-13T12:56:49.718Z,53.79
2023-05-13T12:59:37.697Z,54.08
2023-05-13T13:02:10.811Z,54.40
2023-05-13T13:04:57.768Z,54.38
2023-05-13T13:07:30.933Z,55.38
2023-05-13T13:10:17.698Z,55.14
2023-05-13T13:12:50.920Z,55.71
2023-05-13T13:15:37.724Z,55.63
2023-05-13T13:18:17.713Z,55.55
2023-05-13T13:21:04.727Z,55.27
2023-05-13T13:23:52.728Z,55.82
2023-05-13T13:26:39.713Z,55.83
2023-05-13T13:29:19.728Z,56.05
2023-05-13T13:32:13.777Z,55.70
2023-05-13T13:35:09.738Z,55.99
2023-05-13T13:38:03.719Z,55.72
2023-05-13T13:40:50.730Z,55.13
2023-05-13T13:43:23.891Z,54.82
2023-05-13T13:46:10.755Z,55.31
2023-05-13T13:48:43.840Z,54.80
2023-05-13T13:51:30.759Z,54.63
2023-05-13T13:54:03.839Z,54.77
2023-05-13T13:56:50.728Z,54.18
2023-05-13T13:59:30.745Z,53.67
2023-05-13T14:02:17.756Z,53.73
2023-05-13T14:05:00.745Z,53.23
2023-05-13T14:07:47.753Z,53.50
2023-05-13T14:10:27.745Z,53.41
2023-05-13T14:13:14.754Z,53.37
2023-05-13T14:15:54.820Z,53.27
2023-05-13T14:18:48.841Z,53.42
2023-05-13T14:21:35.755Z,53.21
2023-05-13T14:24:15.761Z,53.04
2023-05-13T14:27:09.755Z,52.31
2023-05-13T14:29:56.804Z,52.00
2023-05-13T14:32:29.903Z,52.39
2023-05-13T14:35:16.789Z,51.30
2023-05-13T14:37:49.973Z,51.55
2023-05-13T14:40:36.765Z,51.31
2023-05-13T14:43:09.901Z,51.57
2023-05-13T14:45:56.773Z,51.11
2023-05-13T14:48:29.996Z,51.46
2023-05-13T14:51:18.742Z,51.46
2023-05-13T14:53:51.865Z,51.81
2023-05-13T14:56:38.748Z,52.29
2023-05-13T14:59:11.874Z,52.38
2023-05-13T15:01:58.831Z,52.49
2023-05-13T15:04:31.977Z,53.39
2023-05-13T15:07:18.786Z,53.25
2023-05-13T15:09:58.780Z,54.13
2023-05-13T15:12:52.771Z,54.01
2023-05-13T15:15:46.772Z,54.97
2023-05-13T15:18:41.814Z,55.54
2023-05-13T15:21:35.763Z,56.21
2023-05-13T15:24:22.787Z,56.92
2023-05-13T15:26:56.895Z,58.10
2023-05-13T15:29:43.759Z,58.82
2023-05-13T15:32:16.888Z,58.93
2023-05-13T15:35:03.793Z,59.43
2023-05-13T15:37:43.807Z,59.60
2023-05-13T15:40:37.782Z,60.52
2023-05-13T15:43:24.809Z,60.54
2023-05-13T15:45:58.933Z,60.89
2023-05-13T15:48:46.050Z,61.29
2023-05-13T15:51:20.673Z,61.50
2023-05-13T15:54:07.803Z,61.73
2023-05-13T15:56:40.920Z,61.85
2023-05-13T15:59:27.791Z,62.32
2023-05-13T16:02:01.066Z,62.74
2023-05-13T16:04:47.819Z,63.08
2023-05-13T16:07:30.824Z,63.30
2023-05-13T16:10:25.021Z,63.62
2023-05-13T16:13:18.798Z,63.93
2023-05-13T16:16:12.856Z,64.21
2023-05-13T16:18:59.836Z,64.66
2023-05-13T16:21:32.906Z,64.21
2023-05-13T16:24:19.801Z,64.26
2023-05-13T16:26:59.799Z,64.31
2023-05-13T16:29:46.856Z,64.69
2023-05-13T16:32:19.904Z,64.66
2023-05-13T16:35:07.802Z,64.56
2023-05-13T16:37:41.194Z,64.95
2023-05-13T16:40:27.988Z,64.74
2023-05-13T16:43:03.648Z,65.10
2023-05-13T16:45:45.888Z,64.81
2023-05-13T16:48:32.901Z,65.21
2023-05-13T16:51:26.850Z,65.00
2023-05-13T16:54:13.932Z,65.38
2023-05-13T16:56:47.067Z,65.26
2023-05-13T16:59:34.893Z,65.61
2023-05-13T17:02:08.132Z,65.12
2023-05-13T17:04:54.867Z,65.43
2023-05-13T17:07:27.945Z,65.26
2023-05-13T17:10:14.848Z,65.16
2023-05-13T17:12:47.989Z,65.55
2023-05-13T17:15:34.858Z,65.41
2023-05-13T17:18:08.044Z,65.54
2023-05-13T17:20:54.935Z,65.78
2023-05-13T17:23:27.959Z,65.58
2023-05-13T17:26:14.863Z,65.98
2023-05-13T17:28:54.870Z,66.20
2023-05-13T17:31:41.881Z,66.39
2023-05-13T17:34:14.977Z,66.34
2023-05-13T17:37:01.912Z,66.76
2023-05-13T17:39:34.958Z,67.09
2023-05-13T17:42:21.866Z,67.87
2023-05-13T17:44:54.979Z,68.20
2023-05-13T17:47:42.082Z,69.52
2023-05-13T17:50:16.301Z,69.67
2023-05-13T17:53:02.847Z,70.56
2023-05-13T17:55:36.994Z,70.76
2023-05-13T17:58:23.878Z,71.57
2023-05-13T18:00:57.089Z,71.78
2023-05-13T18:03:43.862Z,72.00
2023-05-13T18:06:17.178Z,72.37
2023-05-13T18:09:03.913Z,72.53
2023-05-13T18:11:37.005Z,72.69
2023-05-13T18:14:23.873Z,73.33
2023-05-13T18:16:57.096Z,73.73
2023-05-13T18:19:43.880Z,73.52
2023-05-13T18:22:21.088Z,73.89
2023-05-13T18:25:07.840Z,74.57
2023-05-13T18:27:41.050Z,74.41
2023-05-13T18:30:28.633Z,75.29
2023-05-13T18:33:03.107Z,75.89
2023-05-13T18:35:49.932Z,76.67
2023-05-13T18:38:30.848Z,76.78
2023-05-13T18:41:24.875Z,77.34
2023-05-13T18:44:11.879Z,77.44
2023-05-13T18:46:51.928Z,77.70
2023-05-13T18:49:46.962Z,78.39
2023-05-13T18:52:33.904Z,78.85
2023-05-13T18:55:10.021Z,78.85
2023-05-13T18:57:56.895Z,79.57
2023-05-13T19:00:30.045Z,79.20
2023-05-13T19:03:17.997Z,80.08
2023-05-13T19:05:52.204Z,80.22
2023-05-13T19:08:39.904Z,80.93
2023-05-13T19:11:19.878Z,81.08
2023-05-13T19:14:14.886Z,81.15
2023-05-13T19:17:01.965Z,81.75
2023-05-13T19:19:35.054Z,81.69
2023-05-13T19:22:21.904Z,82.72
2023-05-13T19:24:57.308Z,82.48
2023-05-13T19:27:43.891Z,83.41
2023-05-13T19:30:18.063Z,83.37
2023-05-13T19:33:11.975Z,83.77
2023-05-13T19:36:05.931Z,83.97
2023-05-13T19:38:59.914Z,83.97
2023-05-13T19:41:54.927Z,83.85
2023-05-13T19:44:48.916Z,83.59
2023-05-13T19:47:36.963Z,83.67
2023-05-13T19:50:14.401Z,83.74
2023-05-13T19:53:04.100Z,84.33
2023-05-13T19:55:45.113Z,83.82
2023-05-13T19:58:31.967Z,84.86
2023-05-13T20:01:05.025Z,84.53
2023-05-13T20:03:53.044Z,84.90
2023-05-13T20:06:32.910Z,84.72
2023-05-13T20:09:20.905Z,84.99
2023-05-13T20:12:00.932Z,84.95
2023-05-13T20:14:52.911Z,84.88
2023-05-13T20:17:27.292Z,84.84
2023-05-13T20:20:14.912Z,85.14
2023-05-13T20:22:48.044Z,84.87
2023-05-13T20:25:34.935Z,84.87
2023-05-13T20:28:08.060Z,85.15
2023-05-13T20:30:57.937Z,85.59
2023-05-13T20:33:31.065Z,85.53
2023-05-13T20:36:17.922Z,86.21
2023-05-13T20:38:57.945Z,86.07
2023-05-13T20:41:51.963Z,86.04
2023-05-13T20:44:46.179Z,86.52
2023-05-13T20:47:35.210Z,86.77
2023-05-13T20:50:09.081Z,86.90
2023-05-13T20:52:55.936Z,87.03
2023-05-13T20:55:35.918Z,86.92
2023-05-13T20:58:22.981Z,87.12
2023-05-13T21:00:56.115Z,87.27
2023-05-13T21:03:43.015Z,87.73
2023-05-13T21:06:17.185Z,87.33
2023-05-13T21:09:03.984Z,87.89
2023-05-13T21:11:37.186Z,87.74
2023-05-13T21:14:23.957Z,88.46
2023-05-13T21:16:57.191Z,88.27
2023-05-13T21:19:43.954Z,88.57
2023-05-13T21:22:17.112Z,88.62
2023-05-13T21:25:04.034Z,89.33
2023-05-13T21:27:37.023Z,89.22
2023-05-13T21:30:24.161Z,89.55
2023-05-13T21:33:05.052Z,89.62
2023-05-13T21:35:58.974Z,89.83
2023-05-13T21:38:52.961Z,89.96
2023-05-13T21:41:40.034Z,90.10
2023-05-13T21:44:13.132Z,90.00
2023-05-13T21:46:59.953Z,90.46
2023-05-13T21:49:39.969Z,90.23
2023-05-13T21:52:29.996Z,90.66
2023-05-13T21:55:03.068Z,90.59
2023-05-13T21:57:49.950Z,90.94
2023-05-13T22:00:30.976Z,90.47
2023-05-13T22:03:25.000Z,90.80
2023-05-13T22:06:11.980Z,91.73
2023-05-13T22:08:45.074Z,91.50
2023-05-13T22:11:31.955Z,91.40
2023-05-13T22:14:13.001Z,91.38
2023-05-13T22:17:09.097Z,92.19
2023-05-13T22:19:56.957Z,92.03
2023-05-13T22:22:30.316Z,92.02
2023-05-13T22:25:16.970Z,91.99
2023-05-13T22:27:56.998Z,92.06
2023-05-13T22:30:43.969Z,92.17
2023-05-13T22:33:17.278Z,92.01
2023-05-13T22:36:04.012Z,92.50
2023-05-13T22:38:37.378Z,92.85
2023-05-13T22:41:26.999Z,93.12
2023-05-13T22:44:00.112Z,92.90
2023-05-13T22:46:47.063Z,92.94
2023-05-13T22:49:20.154Z,92.89
2023-05-13T22:52:06.978Z,93.43
2023-05-13T22:54:40.088Z,93.34
2023-05-13T22:57:29.984Z,93.75
2023-05-13T23:00:10.022Z,93.52
2023-05-13T23:03:04.080Z,94.22
2023-05-13T23:05:50.990Z,94.47
2023-05-13T23:08:24.085Z,94.83
2023-05-13T23:11:10.994Z,95.13
2023-05-13T23:13:44.085Z,95.16
2023-05-13T23:16:31.089Z,95.56
2023-05-13T23:19:04.130Z,95.29
2023-05-13T23:21:51.022Z,95.17
2023-05-13T23:24:24.166Z,95.18
2023-05-13T23:27:11.008Z,95.42
2023-05-13T23:29:51.020Z,95.19
2023-05-13T23:32:38.064Z,95.22
2023-05-13T23:35:12.115Z,95.11
2023-05-13T23:37:59.011Z,95.60
2023-05-13T23:40:39.008Z,95.86
2023-05-13T23:43:26.010Z,96.01
2023-05-13T23:45:59.192Z,96.04
2023-05-13T23:48:46.007Z,96.23
2023-05-13T23:51:25.996Z,96.35
2023-05-13T23:54:20.021Z,96.31
2023-05-13T23:57:07.060Z,96.13
2023-05-13T23:59:47.041Z,95.99
